Terminal Aerodrome Forecast
Issued by NWS Twin Cities, MN

Home | Current Version | Previous Version | Text Only | Print | Product List | Glossary Off
Versions: 1 2 3 4 5 6 7 8 9 10 11 12

000
FTUS43 KMPX 261100
TAFEAU
TAF
KEAU 261120Z 2612/2712 31007KT P6SM BKN250
     FM261700 33006KT P6SM SCT250
     FM270400 VRB02KT P6SM BKN120=

USA.gov is the U.S. government's official web portal to all federal, state and local government web resources and services.